createdAt,value
2022-08-09T00:00:35.828Z,4.97
2022-08-09T00:02:49.230Z,5.25
2022-08-09T00:05:03.064Z,5.60
2022-08-09T00:07:18.249Z,5.53
2022-08-09T00:09:21.583Z,5.60
2022-08-09T00:12:03.402Z,4.88
2022-08-09T00:13:53.300Z,5.50
2022-08-09T00:16:02.758Z,5.15
2022-08-09T00:18:11.488Z,4.88
2022-08-09T00:20:17.530Z,4.97
2022-08-09T00:22:22.477Z,4.88
2022-08-09T00:24:27.749Z,5.13
2022-08-09T00:26:32.983Z,4.03
2022-08-09T00:28:37.945Z,4.40
2022-08-09T00:30:42.665Z,4.25
2022-08-09T00:32:46.671Z,4.57
2022-08-09T00:34:51.962Z,4.68
2022-08-09T00:36:57.226Z,4.95
2022-08-09T00:39:02.545Z,4.30
2022-08-09T00:41:09.339Z,5.47
2022-08-09T00:44:13.490Z,4.35
2022-08-09T00:45:58.308Z,4.57
2022-08-09T00:48:02.461Z,4.38
2022-08-09T00:50:14.306Z,4.47
2022-08-09T00:52:19.897Z,4.00
2022-08-09T00:54:31.442Z,4.30
2022-08-09T00:56:39.340Z,4.25
2022-08-09T00:58:43.501Z,4.00
2022-08-09T01:00:55.940Z,3.85
2022-08-09T01:03:12.564Z,3.97
2022-08-09T01:05:54.349Z,4.38
2022-08-09T01:08:01.495Z,4.13
2022-08-09T01:10:11.015Z,4.55
2022-08-09T01:12:24.467Z,4.72
2022-08-09T01:14:33.467Z,4.40
2022-08-09T01:16:47.503Z,4.07
2022-08-09T01:19:01.991Z,4.13
2022-08-09T01:21:20.902Z,4.50
2022-08-09T01:24:02.678Z,4.32
2022-08-09T01:26:23.981Z,3.80
2022-08-09T01:28:33.040Z,4.07
2022-08-09T01:30:51.922Z,3.75
2022-08-09T01:32:59.898Z,4.03
2022-08-09T01:35:28.606Z,3.65
2022-08-09T01:38:05.581Z,3.92
2022-08-09T01:40:02.805Z,3.80
2022-08-09T01:42:11.297Z,4.65
2022-08-09T01:44:18.107Z,3.72
2022-08-09T01:46:27.452Z,3.80
2022-08-09T01:48:32.926Z,4.03
2022-08-09T01:50:41.792Z,4.05
2022-08-09T01:52:47.756Z,4.03
2022-08-09T01:54:57.809Z,4.25
2022-08-09T01:57:08.254Z,3.88
2022-08-09T01:59:17.161Z,3.67
2022-08-09T02:01:57.999Z,4.00
2022-08-09T02:03:50.345Z,3.97
2022-08-09T02:06:03.916Z,3.97
2022-08-09T02:08:41.255Z,3.63
2022-08-09T02:10:42.825Z,3.40
2022-08-09T02:12:56.381Z,3.90
2022-08-09T02:15:02.805Z,3.67
2022-08-09T02:17:54.980Z,4.25
2022-08-09T02:19:43.549Z,3.67
2022-08-09T02:21:55.528Z,4.20
2022-08-09T02:24:01.970Z,4.28
2022-08-09T02:26:07.685Z,4.18
2022-08-09T02:28:35.557Z,3.40
2022-08-09T02:30:43.532Z,3.65
2022-08-09T02:32:54.538Z,3.35
2022-08-09T02:35:17.352Z,4.00
2022-08-09T02:39:42.090Z,3.28
2022-08-09T02:41:52.483Z,3.60
2022-08-09T02:44:10.353Z,3.45
2022-08-09T02:46:30.647Z,3.50
2022-08-09T02:48:37.810Z,3.25
2022-08-09T02:50:44.901Z,3.40
2022-08-09T02:52:55.339Z,3.20
2022-08-09T02:55:03.261Z,3.50
2022-08-09T02:57:25.501Z,3.38
2022-08-09T02:59:36.595Z,3.50
2022-08-09T03:01:43.132Z,3.33
2022-08-09T03:04:17.660Z,3.47
2022-08-09T03:06:25.083Z,3.45
2022-08-09T03:08:32.354Z,3.17
2022-08-09T03:10:37.894Z,3.50
2022-08-09T03:12:43.355Z,3.55
2022-08-09T03:14:55.208Z,2.97
2022-08-09T03:17:01.816Z,3.35
2022-08-09T03:19:52.836Z,3.60
2022-08-09T03:21:36.418Z,3.38
2022-08-09T03:24:01.566Z,3.35
2022-08-09T03:26:08.817Z,3.20
2022-08-09T03:28:13.692Z,3.55
2022-08-09T03:30:30.254Z,3.35
2022-08-09T03:32:39.316Z,3.38
2022-08-09T03:34:44.487Z,3.70
2022-08-09T03:36:59.432Z,3.58
2022-08-09T03:39:06.442Z,3.40
2022-08-09T03:41:10.287Z,3.28
2022-08-09T03:43:19.429Z,3.50
2022-08-09T03:46:04.569Z,3.03
2022-08-09T03:47:47.881Z,3.15
2022-08-09T03:49:58.223Z,3.08
2022-08-09T03:52:04.157Z,2.80
2022-08-09T03:54:10.885Z,2.78
2022-08-09T03:56:15.230Z,3.15
2022-08-09T03:58:21.027Z,3.60
2022-08-09T04:00:25.343Z,3.45
2022-08-09T04:02:32.576Z,3.38
2022-08-09T04:04:38.747Z,3.47
2022-08-09T04:06:49.307Z,3.33
2022-08-09T04:08:53.733Z,3.20
2022-08-09T04:11:01.342Z,2.90
2022-08-09T04:13:11.526Z,3.20
2022-08-09T04:15:29.703Z,3.35
2022-08-09T04:17:42.283Z,3.38
2022-08-09T04:19:51.517Z,3.40
2022-08-09T04:22:03.202Z,3.22
2022-08-09T04:24:07.300Z,3.25
2022-08-09T04:26:11.242Z,2.90
2022-08-09T04:28:14.780Z,3.45
2022-08-09T04:30:37.550Z,3.22
2022-08-09T04:32:47.678Z,3.40
2022-08-09T04:34:54.381Z,3.47
2022-08-09T04:37:03.565Z,3.30
2022-08-09T04:39:09.921Z,3.28
2022-08-09T04:41:15.654Z,3.38
2022-08-09T04:43:20.351Z,3.30
2022-08-09T04:45:25.090Z,3.20
2022-08-09T04:47:59.145Z,3.47
2022-08-09T04:52:02.488Z,3.20
2022-08-09T04:54:06.903Z,3.65
2022-08-09T04:56:10.881Z,4.68
2022-08-09T04:58:14.517Z,4.72
2022-08-09T05:00:18.395Z,4.43
2022-08-09T05:02:22.072Z,3.85
2022-08-09T05:04:31.261Z,3.90
2022-08-09T05:06:36.043Z,4.32
2022-08-09T05:08:43.985Z,4.35
2022-08-09T05:10:51.521Z,4.45
2022-08-09T05:12:55.213Z,4.60
2022-08-09T05:14:59.027Z,4.28
2022-08-09T05:17:02.750Z,4.80
2022-08-09T05:19:07.727Z,4.03
2022-08-09T05:21:24.383Z,5.05
2022-08-09T05:23:54.467Z,4.35
2022-08-09T05:25:54.159Z,4.82
2022-08-09T05:28:00.654Z,4.30
2022-08-09T05:30:04.747Z,4.30
2022-08-09T05:32:10.499Z,4.85
2022-08-09T05:34:16.505Z,5.03
2022-08-09T05:36:21.120Z,4.50
2022-08-09T05:38:30.054Z,4.88
2022-08-09T05:40:34.858Z,5.65
2022-08-09T05:42:40.240Z,5.50
2022-08-09T05:44:43.994Z,6.15
2022-08-09T05:46:47.648Z,5.20
2022-08-09T05:48:58.950Z,5.40
2022-08-09T05:51:30.309Z,5.57
2022-08-09T05:53:31.635Z,5.43
2022-08-09T05:55:37.167Z,5.47
2022-08-09T05:57:57.183Z,5.13
2022-08-09T06:00:01.957Z,4.72
2022-08-09T06:02:17.090Z,5.70
2022-08-09T06:04:23.434Z,5.47
2022-08-09T06:06:28.026Z,5.38
2022-08-09T06:08:31.733Z,5.68
2022-08-09T06:10:41.659Z,4.78
2022-08-09T06:12:52.095Z,5.40
2022-08-09T06:15:10.089Z,5.07
2022-08-09T06:17:13.949Z,4.72
2022-08-09T06:19:17.962Z,4.63
2022-08-09T06:21:24.673Z,5.20
2022-08-09T06:23:57.777Z,4.70
2022-08-09T06:25:55.181Z,5.28
2022-08-09T06:28:00.844Z,4.45
2022-08-09T06:30:09.910Z,4.35
2022-08-09T06:32:59.510Z,4.45
2022-08-09T06:34:38.153Z,4.95
2022-08-09T06:36:43.757Z,4.85
2022-08-09T06:38:50.294Z,4.22
2022-08-09T06:40:54.953Z,4.20
2022-08-09T06:43:01.344Z,4.43
2022-08-09T06:46:07.477Z,4.00
2022-08-09T06:47:39.870Z,4.30
2022-08-09T06:50:14.818Z,4.30
2022-08-09T06:52:09.189Z,4.78
2022-08-09T06:54:15.004Z,4.40
2022-08-09T06:56:18.887Z,4.63
2022-08-09T06:58:40.654Z,4.60
2022-08-09T07:00:58.759Z,5.07
2022-08-09T07:03:06.105Z,5.13
2022-08-09T07:05:10.508Z,5.30
2022-08-09T07:07:58.853Z,5.57
2022-08-09T07:11:25.617Z,5.45
2022-08-09T07:13:30.434Z,5.90
2022-08-09T07:15:53.870Z,4.80
2022-08-09T07:18:02.324Z,4.75
2022-08-09T07:20:08.103Z,4.60
2022-08-09T07:22:11.955Z,4.75
2022-08-09T07:24:17.894Z,4.40
2022-08-09T07:26:23.096Z,4.22
2022-08-09T07:28:28.363Z,4.63
2022-08-09T07:30:33.041Z,4.10
2022-08-09T07:32:37.032Z,4.47
2022-08-09T07:34:43.904Z,4.35
2022-08-09T07:36:51.084Z,4.68
2022-08-09T07:39:00.913Z,4.60
2022-08-09T07:41:12.043Z,4.05
2022-08-09T07:43:18.208Z,4.68
2022-08-09T07:45:37.543Z,5.10
2022-08-09T07:48:00.872Z,4.75
2022-08-09T07:50:09.558Z,4.45
2022-08-09T07:52:17.841Z,4.55
2022-08-09T07:54:28.218Z,4.75
2022-08-09T07:56:34.923Z,4.50
2022-08-09T07:58:42.330Z,5.30
2022-08-09T08:00:58.915Z,4.63
2022-08-09T08:03:11.566Z,5.03
2022-08-09T08:05:18.061Z,4.43
2022-08-09T08:08:45.216Z,4.43
2022-08-09T08:09:53.563Z,4.18
2022-08-09T08:12:24.840Z,4.78
2022-08-09T08:14:33.516Z,4.35
2022-08-09T08:16:39.693Z,4.65
2022-08-09T08:18:55.307Z,4.40
2022-08-09T08:20:59.596Z,4.30
2022-08-09T08:23:16.673Z,3.97
2022-08-09T08:25:21.236Z,4.65
2022-08-09T08:27:26.155Z,4.80
2022-08-09T08:29:39.379Z,4.15
2022-08-09T08:32:03.317Z,5.10
2022-08-09T08:34:09.328Z,4.20
2022-08-09T08:36:29.157Z,5.45
2022-08-09T08:38:33.488Z,4.05
2022-08-09T08:40:38.037Z,4.50
2022-08-09T08:42:47.226Z,4.10
2022-08-09T08:44:56.567Z,3.88
2022-08-09T08:47:05.043Z,4.50
2022-08-09T08:49:19.043Z,3.83
2022-08-09T08:51:24.000Z,3.75
2022-08-09T08:53:32.201Z,3.60
2022-08-09T08:55:42.248Z,3.40
2022-08-09T08:57:56.391Z,3.58
2022-08-09T09:00:01.526Z,3.58
2022-08-09T09:02:08.721Z,4.20
2022-08-09T09:04:14.588Z,3.58
2022-08-09T09:06:20.882Z,3.75
2022-08-09T09:08:30.612Z,3.20
2022-08-09T09:10:36.652Z,3.22
2022-08-09T09:12:41.508Z,3.60
2022-08-09T09:14:47.875Z,2.85
2022-08-09T09:16:52.225Z,3.08
2022-08-09T09:19:22.555Z,3.30
2022-08-09T09:21:26.115Z,2.92
2022-08-09T09:23:41.865Z,3.22
2022-08-09T09:26:03.097Z,3.35
2022-08-09T09:28:11.550Z,3.40
2022-08-09T09:30:40.826Z,2.95
2022-08-09T09:32:45.360Z,2.92
2022-08-09T09:35:09.425Z,3.22
2022-08-09T09:37:32.226Z,3.25
2022-08-09T09:39:54.510Z,3.33
2022-08-09T09:44:12.420Z,3.22
2022-08-09T09:48:57.953Z,3.70
2022-08-09T09:51:03.508Z,3.97
2022-08-09T09:53:09.020Z,3.83
2022-08-09T09:55:27.818Z,3.20
2022-08-09T09:58:01.333Z,2.92
2022-08-09T09:59:59.729Z,3.00
2022-08-09T10:02:03.881Z,3.28
2022-08-09T10:04:16.317Z,3.42
2022-08-09T10:06:32.178Z,3.30
2022-08-09T10:08:43.090Z,3.22
2022-08-09T10:10:59.257Z,3.35
2022-08-09T10:13:03.048Z,3.25
2022-08-09T10:15:17.458Z,3.08
2022-08-09T10:17:50.365Z,2.90
2022-08-09T10:19:59.295Z,3.13
2022-08-09T10:22:05.178Z,2.95
2022-08-09T10:24:09.709Z,3.58
2022-08-09T10:26:21.636Z,3.53
2022-08-09T10:28:29.273Z,4.03
2022-08-09T10:32:13.583Z,3.30
2022-08-09T10:32:57.526Z,3.20
2022-08-09T10:35:03.337Z,3.40
2022-08-09T10:37:09.874Z,3.55
2022-08-09T10:39:21.116Z,3.38
2022-08-09T10:41:24.775Z,3.38
2022-08-09T10:43:36.109Z,3.88
2022-08-09T10:45:59.965Z,3.40
2022-08-09T10:48:19.382Z,3.60
2022-08-09T10:51:03.672Z,4.18
2022-08-09T10:53:21.306Z,3.22
2022-08-09T10:55:28.475Z,3.70
2022-08-09T10:57:41.804Z,3.50
2022-08-09T10:59:58.114Z,3.60
2022-08-09T11:03:16.372Z,3.40
2022-08-09T11:04:32.601Z,3.70
2022-08-09T11:07:57.934Z,3.70
2022-08-09T11:09:59.801Z,3.35
2022-08-09T11:12:17.229Z,4.00
2022-08-09T11:14:32.436Z,3.17
2022-08-09T11:16:39.201Z,3.72
2022-08-09T11:18:46.254Z,2.92
2022-08-09T11:20:53.006Z,3.70
2022-08-09T11:23:10.066Z,3.10
2022-08-09T11:25:16.596Z,3.13
2022-08-09T11:28:02.394Z,3.33
2022-08-09T11:30:04.841Z,3.88
2022-08-09T11:32:46.552Z,3.50
2022-08-09T11:34:53.467Z,3.60
2022-08-09T11:37:00.590Z,3.97
2022-08-09T11:39:05.599Z,3.80
2022-08-09T11:41:37.867Z,3.47
2022-08-09T11:43:49.090Z,3.88
2022-08-09T11:45:57.611Z,3.88
2022-08-09T11:48:11.104Z,3.25
2022-08-09T11:50:57.034Z,3.38
2022-08-09T11:54:01.695Z,3.50
2022-08-09T11:58:50.185Z,5.60
2022-08-09T12:00:56.361Z,3.35
2022-08-09T12:03:40.972Z,3.72
2022-08-09T12:05:37.994Z,4.20
2022-08-09T12:07:44.630Z,3.90
2022-08-09T12:09:51.284Z,3.30
2022-08-09T12:12:03.378Z,3.60
2022-08-09T12:14:12.406Z,3.60
2022-08-09T12:16:39.850Z,3.38
2022-08-09T12:18:48.988Z,3.60
2022-08-09T12:21:00.295Z,4.00
2022-08-09T12:23:05.483Z,3.58
2022-08-09T12:25:14.878Z,4.75
2022-08-09T12:29:10.358Z,3.60
2022-08-09T12:30:01.910Z,3.47
2022-08-09T12:32:27.210Z,4.43
2022-08-09T12:34:35.027Z,3.08
2022-08-09T12:36:52.760Z,3.97
2022-08-09T12:39:04.220Z,3.90
2022-08-09T12:41:08.653Z,3.50
2022-08-09T12:43:14.482Z,3.90
2022-08-09T12:45:34.672Z,3.95
2022-08-09T12:47:45.043Z,3.72
2022-08-09T12:50:11.617Z,3.78
2022-08-09T12:52:15.627Z,3.72
2022-08-09T12:54:23.893Z,3.88
2022-08-09T12:56:39.619Z,3.80
2022-08-09T12:59:08.064Z,4.13
2022-08-09T13:01:26.742Z,3.60
2022-08-09T13:03:53.780Z,3.63
2022-08-09T13:06:14.524Z,4.05
2022-08-09T13:08:40.062Z,3.95
2022-08-09T13:10:52.468Z,4.18
2022-08-09T13:13:09.599Z,4.10
2022-08-09T13:15:15.023Z,4.40
2022-08-09T13:17:58.627Z,4.20
2022-08-09T13:20:10.653Z,3.50
2022-08-09T13:22:36.527Z,3.95
2022-08-09T13:24:53.838Z,4.18
2022-08-09T13:26:58.870Z,4.00
2022-08-09T13:29:07.744Z,4.53
2022-08-09T13:32:15.991Z,4.10
2022-08-09T13:33:53.015Z,4.30
2022-08-09T13:36:24.422Z,4.72
2022-08-09T13:38:56.253Z,4.45
2022-08-09T13:41:51.585Z,4.32
2022-08-09T13:43:09.955Z,4.70
2022-08-09T13:45:19.928Z,4.53
2022-08-09T13:47:31.331Z,3.70
2022-08-09T13:49:57.550Z,4.22
2022-08-09T13:52:08.897Z,4.40
2022-08-09T13:54:13.448Z,4.40
2022-08-09T13:56:18.199Z,4.32
2022-08-09T13:58:23.926Z,4.00
2022-08-09T14:00:30.470Z,4.50
2022-08-09T14:02:42.233Z,4.05
2022-08-09T14:04:49.370Z,5.63
2022-08-09T14:07:05.951Z,4.80
2022-08-09T14:09:11.224Z,4.90
2022-08-09T14:11:16.601Z,4.43
2022-08-09T14:13:27.643Z,4.25
2022-08-09T14:16:06.513Z,4.40
2022-08-09T14:18:18.613Z,4.50
2022-08-09T14:20:19.562Z,3.97
2022-08-09T14:22:24.602Z,4.22
2022-08-09T14:24:32.546Z,4.10
2022-08-09T14:26:37.665Z,3.80
2022-08-09T14:28:41.638Z,4.38
2022-08-09T14:30:45.594Z,4.85
2022-08-09T14:32:50.692Z,4.53
2022-08-09T14:34:55.775Z,4.10
2022-08-09T14:37:01.599Z,4.47
2022-08-09T14:39:08.931Z,4.15
2022-08-09T14:41:39.830Z,4.38
2022-08-09T14:43:46.941Z,3.90
2022-08-09T14:46:57.172Z,4.10
2022-08-09T14:48:15.523Z,3.97
2022-08-09T14:50:20.750Z,4.30
2022-08-09T14:52:25.379Z,4.45
2022-08-09T14:54:30.465Z,5.18
2022-08-09T14:56:57.287Z,4.30
2022-08-09T14:59:01.492Z,3.97
2022-08-09T15:01:05.757Z,4.47
2022-08-09T15:03:10.932Z,4.40
2022-08-09T15:05:16.093Z,4.45
2022-08-09T15:07:20.069Z,4.28
2022-08-09T15:09:51.954Z,4.20
2022-08-09T15:11:49.781Z,4.43
2022-08-09T15:14:01.627Z,4.22
2022-08-09T15:16:10.167Z,4.05
2022-08-09T15:18:14.738Z,4.05
2022-08-09T15:22:00.856Z,4.35
2022-08-09T15:22:46.649Z,3.95
2022-08-09T15:24:51.185Z,3.95
2022-08-09T15:26:57.946Z,4.03
2022-08-09T15:29:04.982Z,3.65
2022-08-09T15:31:13.330Z,4.00
2022-08-09T15:33:28.053Z,4.00
2022-08-09T15:36:01.913Z,4.13
2022-08-09T15:38:11.883Z,3.90
2022-08-09T15:40:19.878Z,9.73
2022-08-09T15:42:25.514Z,4.38
2022-08-09T15:44:29.293Z,3.97
2022-08-09T15:46:36.505Z,3.60
2022-08-09T15:48:42.650Z,3.70
2022-08-09T15:51:30.340Z,3.83
2022-08-09T15:54:04.484Z,3.72
2022-08-09T15:56:21.079Z,3.90
2022-08-09T15:58:26.530Z,3.03
2022-08-09T16:00:31.143Z,3.78
2022-08-09T16:02:36.008Z,3.63
2022-08-09T16:04:39.723Z,3.80
2022-08-09T16:06:50.494Z,3.35
2022-08-09T16:08:56.299Z,3.80
2022-08-09T16:11:05.555Z,3.70
2022-08-09T16:13:20.948Z,3.50
2022-08-09T16:16:10.740Z,3.53
2022-08-09T16:18:01.704Z,3.88
2022-08-09T16:20:09.230Z,3.70
2022-08-09T16:22:15.851Z,3.60
2022-08-09T16:24:29.990Z,3.65
2022-08-09T16:26:37.482Z,3.30
2022-08-09T16:28:41.532Z,3.40
2022-08-09T16:30:58.432Z,3.38
2022-08-09T16:33:11.886Z,3.28
2022-08-09T16:35:56.035Z,3.30
2022-08-09T16:37:54.448Z,3.10
2022-08-09T16:40:05.476Z,3.42
2022-08-09T16:42:09.519Z,4.03
2022-08-09T16:44:19.325Z,3.50
2022-08-09T16:46:27.500Z,3.45
2022-08-09T16:48:40.193Z,3.25
2022-08-09T16:50:59.708Z,2.90
2022-08-09T16:53:12.287Z,2.97
2022-08-09T16:55:19.468Z,3.42
2022-08-09T16:57:23.374Z,3.30
2022-08-09T16:59:27.449Z,3.10
2022-08-09T17:01:43.117Z,3.20
2022-08-09T17:03:55.003Z,2.97
2022-08-09T17:06:07.520Z,3.47
2022-08-09T17:08:44.381Z,3.65
2022-08-09T17:10:47.660Z,3.10
2022-08-09T17:12:56.508Z,2.72
2022-08-09T17:15:00.289Z,2.90
2022-08-09T17:17:26.079Z,3.20
2022-08-09T17:19:46.545Z,2.97
2022-08-09T17:21:56.063Z,3.20
2022-08-09T17:24:21.122Z,2.60
2022-08-09T17:26:31.342Z,2.83
2022-08-09T17:28:36.225Z,2.50
2022-08-09T17:30:40.654Z,2.78
2022-08-09T17:32:52.914Z,2.90
2022-08-09T17:35:07.596Z,3.22
2022-08-09T17:37:19.966Z,3.05
2022-08-09T17:39:25.594Z,2.90
2022-08-09T17:41:49.950Z,2.83
2022-08-09T17:44:38.088Z,2.70
2022-08-09T17:46:18.420Z,2.80
2022-08-09T17:48:46.486Z,2.58
2022-08-09T17:50:59.251Z,2.70
2022-08-09T17:53:21.599Z,2.55
2022-08-09T17:55:34.474Z,2.60
2022-08-09T17:58:03.023Z,2.90
2022-08-09T18:00:09.747Z,2.60
2022-08-09T18:02:19.733Z,2.47
2022-08-09T18:04:31.524Z,2.58
2022-08-09T18:06:36.759Z,2.17
2022-08-09T18:08:41.262Z,3.08
2022-08-09T18:10:46.183Z,2.47
2022-08-09T18:13:39.363Z,2.83
2022-08-09T18:15:50.667Z,2.80
2022-08-09T18:18:03.377Z,2.60
2022-08-09T18:20:59.879Z,3.33
2022-08-09T18:22:34.475Z,3.10
2022-08-09T18:24:38.249Z,3.15
2022-08-09T18:26:46.266Z,4.45
2022-08-09T18:30:39.172Z,2.40
2022-08-09T18:31:14.953Z,2.92
2022-08-09T18:33:28.578Z,3.00
2022-08-09T18:36:00.009Z,2.75
2022-08-09T18:37:58.927Z,2.70
2022-08-09T18:40:03.109Z,2.75
2022-08-09T18:42:08.084Z,3.22
2022-08-09T18:44:13.758Z,3.22
2022-08-09T18:46:47.091Z,2.70
2022-08-09T18:48:42.275Z,3.20
2022-08-09T18:50:47.862Z,2.67
2022-08-09T18:52:51.461Z,3.28
2022-08-09T18:54:55.675Z,3.50
2022-08-09T18:57:05.938Z,3.25
2022-08-09T18:59:10.477Z,3.05
2022-08-09T19:01:14.249Z,3.67
2022-08-09T19:03:19.418Z,2.92
2022-08-09T19:05:28.767Z,2.60
2022-08-09T19:08:04.339Z,3.08
2022-08-09T19:10:17.912Z,2.67
2022-08-09T19:12:22.033Z,2.90
2022-08-09T19:14:29.380Z,2.88
2022-08-09T19:16:36.605Z,2.90
2022-08-09T19:18:45.394Z,3.80
2022-08-09T19:20:52.288Z,2.85
2022-08-09T19:23:05.460Z,3.00
2022-08-09T19:25:41.971Z,2.85
2022-08-09T19:27:36.092Z,2.95
2022-08-09T19:30:21.577Z,2.63
2022-08-09T19:32:05.583Z,3.20
2022-08-09T19:34:09.547Z,3.15
2022-08-09T19:36:30.958Z,3.78
2022-08-09T19:38:39.831Z,4.95
2022-08-09T19:40:43.931Z,4.30
2022-08-09T19:42:53.565Z,3.78
2022-08-09T19:44:57.752Z,3.80
2022-08-09T19:47:01.705Z,3.58
2022-08-09T19:50:10.247Z,3.60
2022-08-09T19:51:31.075Z,3.75
2022-08-09T19:53:37.281Z,3.60
2022-08-09T19:56:03.307Z,3.42
2022-08-09T19:58:16.173Z,3.70
2022-08-09T20:00:20.999Z,4.20
2022-08-09T20:04:24.030Z,3.75
2022-08-09T20:04:54.882Z,3.67
2022-08-09T20:06:59.692Z,3.90
2022-08-09T20:09:07.812Z,4.30
2022-08-09T20:11:13.899Z,3.75
2022-08-09T20:13:20.705Z,3.58
2022-08-09T20:16:38.603Z,4.05
2022-08-09T20:17:54.702Z,3.72
2022-08-09T20:19:58.892Z,4.07
2022-08-09T20:22:02.827Z,3.55
2022-08-09T20:24:09.238Z,3.72
2022-08-09T20:26:15.458Z,3.97
2022-08-09T20:28:28.041Z,3.80
2022-08-09T20:30:38.283Z,3.50
2022-08-09T20:32:48.107Z,4.28
2022-08-09T20:34:52.001Z,4.25
2022-08-09T20:36:56.012Z,4.40
2022-08-09T20:39:28.581Z,4.80
2022-08-09T20:41:32.197Z,4.28
2022-08-09T20:43:39.458Z,3.65
2022-08-09T20:46:00.566Z,4.00
2022-08-09T20:48:13.062Z,4.35
2022-08-09T20:50:47.789Z,4.07
2022-08-09T20:52:49.073Z,3.72
2022-08-09T20:54:56.677Z,3.70
2022-08-09T20:57:03.913Z,3.83
2022-08-09T20:59:08.089Z,4.32
2022-08-09T21:01:35.443Z,4.50
2022-08-09T21:04:07.654Z,4.28
2022-08-09T21:06:04.104Z,4.20
2022-08-09T21:08:08.934Z,3.55
2022-08-09T21:10:14.587Z,4.13
2022-08-09T21:12:19.586Z,4.47
2022-08-09T21:14:23.212Z,3.95
2022-08-09T21:16:30.310Z,4.07
2022-08-09T21:18:34.663Z,4.15
2022-08-09T21:20:58.466Z,4.22
2022-08-09T21:23:02.351Z,4.43
2022-08-09T21:25:44.293Z,4.57
2022-08-09T21:27:59.482Z,4.47
2022-08-09T21:30:04.467Z,4.70
2022-08-09T21:32:09.074Z,4.55
2022-08-09T21:34:29.482Z,4.65
2022-08-09T21:36:33.403Z,4.93
2022-08-09T21:38:37.652Z,4.45
2022-08-09T21:40:43.365Z,4.57
2022-08-09T21:42:54.579Z,4.68
2022-08-09T21:44:59.885Z,4.80
2022-08-09T21:47:05.203Z,5.13
2022-08-09T21:49:09.219Z,4.95
2022-08-09T21:51:16.645Z,5.05
2022-08-09T21:53:40.070Z,5.13
2022-08-09T21:55:46.462Z,5.13
2022-08-09T21:57:58.863Z,4.80
2022-08-09T22:00:07.147Z,5.05
2022-08-09T22:04:56.649Z,5.03
2022-08-09T22:07:04.801Z,5.38
2022-08-09T22:09:11.040Z,5.80
2022-08-09T22:12:05.613Z,5.18
2022-08-09T22:13:38.583Z,6.15
2022-08-09T22:15:48.157Z,5.30
2022-08-09T22:17:52.159Z,5.65
2022-08-09T22:19:59.734Z,5.93
2022-08-09T22:22:04.579Z,5.10
2022-08-09T22:24:08.530Z,5.80
2022-08-09T22:26:34.095Z,6.20
2022-08-09T22:28:47.095Z,6.13
2022-08-09T22:30:58.224Z,6.45
2022-08-09T22:33:01.759Z,5.88
2022-08-09T22:36:00.700Z,6.78
2022-08-09T22:37:40.020Z,5.90
2022-08-09T22:39:55.565Z,6.15
2022-08-09T22:42:02.704Z,6.05
2022-08-09T22:44:07.526Z,6.40
2022-08-09T22:48:15.522Z,6.38
2022-08-09T22:48:38.853Z,6.15
2022-08-09T22:50:54.226Z,5.80
2022-08-09T22:52:58.631Z,6.30
2022-08-09T22:55:02.552Z,6.07
2022-08-09T22:57:06.525Z,6.10
2022-08-09T22:59:56.206Z,5.85
2022-08-09T23:01:40.765Z,6.53
2022-08-09T23:04:03.243Z,6.50
2022-08-09T23:06:08.115Z,6.40
2022-08-09T23:08:31.989Z,6.10
2022-08-09T23:10:38.199Z,6.10
2022-08-09T23:12:45.608Z,6.75
2022-08-09T23:14:49.168Z,6.63
2022-08-09T23:16:59.188Z,6.47
2022-08-09T23:19:02.817Z,6.68
2022-08-09T23:21:06.895Z,6.40
2022-08-09T23:23:10.916Z,6.70
2022-08-09T23:25:14.822Z,6.45
2022-08-09T23:27:18.617Z,6.68
2022-08-09T23:29:22.189Z,6.32
2022-08-09T23:31:25.933Z,6.63
2022-08-09T23:33:31.362Z,6.10
2022-08-09T23:36:04.507Z,6.10
2022-08-09T23:37:59.961Z,6.90
2022-08-09T23:40:03.932Z,6.45
2022-08-09T23:42:07.744Z,6.40
2022-08-09T23:44:11.302Z,6.75
2022-08-09T23:46:15.369Z,6.80
2022-08-09T23:48:19.846Z,6.70
2022-08-09T23:50:24.945Z,6.35
2022-08-09T23:52:28.597Z,6.68
2022-08-09T23:54:34.688Z,6.30
2022-08-09T23:56:52.325Z,6.10
2022-08-09T23:58:58.680Z,6.43
